Time;durP1;ratioP1;P1;durP2;ratioP2;P2;SDS_P1;SDS_P2;PMS_P1;PMS_P2;Temp;Humidity;BMP_temperature;BMP_pressure;BME280_temperature;BME280_humidity;BME280_pressure;Samples;Min_cycle;Max_cycle;Signal;HPM_P1;HPM_P2
2022/09/28 00:01:35;;;;;;;0.30;0.10;;;9.40;99.90;;;;;;5039261;28;20456;-70
2022/09/28 00:04:02;;;;;;;0.37;0.20;;;9.30;99.90;;;;;;5039186;28;20448;-70
2022/09/28 00:06:30;;;;;;;0.40;0.20;;;9.30;99.90;;;;;;5039171;28;20463;-70
2022/09/28 00:08:58;;;;;;;0.40;0.20;;;9.30;99.90;;;;;;5039179;28;20491;-70
2022/09/28 00:11:27;;;;;;;0.30;0.20;;;9.30;99.90;;;;;;5039167;28;20448;-70
2022/09/28 00:13:56;;;;;;;0.30;0.10;;;9.30;99.90;;;;;;5039320;28;20743;-70
2022/09/28 00:16:26;;;;;;;1.30;0.20;;;9.30;99.90;;;;;;5038796;28;20448;-70
2022/09/28 00:18:54;;;;;;;0.40;0.10;;;9.30;99.90;;;;;;5039122;28;20533;-70
2022/09/28 00:21:23;;;;;;;0.40;0.20;;;9.30;99.90;;;;;;5038973;28;20444;-70
2022/09/28 00:26:37;;;;;;;0.40;0.20;;;9.40;99.90;;;;;;5038802;28;20519;-70
2022/09/28 00:29:04;;;;;;;0.30;0.10;;;9.40;99.90;;;;;;5038932;28;20534;-70
2022/09/28 00:31:33;;;;;;;0.30;0.10;;;9.30;99.90;;;;;;5038901;28;20551;-70
2022/09/28 00:34:03;;;;;;;0.40;0.20;;;9.30;99.90;;;;;;5038804;28;20760;-70
2022/09/28 00:36:32;;;;;;;1.23;0.20;;;9.40;99.90;;;;;;5039022;28;20460;-71
2022/09/28 00:39:02;;;;;;;0.30;0.10;;;9.40;99.90;;;;;;5038681;28;20448;-70
2022/09/28 00:41:29;;;;;;;0.30;0.20;;;9.40;99.90;;;;;;5035745;28;20456;-70
2022/09/28 00:44:29;;;;;;;0.40;0.20;;;9.50;99.90;;;;;;5038093;28;20459;-69
2022/09/28 00:47:01;;;;;;;0.37;0.20;;;9.40;99.90;;;;;;5035934;28;20884;-70
2022/09/28 00:49:33;;;;;;;0.40;0.20;;;9.30;99.90;;;;;;5038251;28;20476;-70
2022/09/28 00:52:03;;;;;;;0.30;0.10;;;9.40;99.90;;;;;;5036217;28;20547;-70
2022/09/28 00:54:30;;;;;;;1.60;0.30;;;9.30;99.90;;;;;;5037944;28;20457;-69
2022/09/28 00:56:57;;;;;;;0.60;0.30;;;9.30;99.90;;;;;;5038170;28;20456;-70
2022/09/28 00:59:28;;;;;;;0.30;0.10;;;9.40;99.90;;;;;;5038157;28;20451;-71
2022/09/28 01:01:55;;;;;;;0.97;0.20;;;9.40;99.90;;;;;;5038176;28;20838;-70
2022/09/28 01:04:24;;;;;;;2.10;0.30;;;9.40;99.90;;;;;;5038411;28;20451;-69
2022/09/28 01:06:52;;;;;;;0.33;0.20;;;9.40;99.90;;;;;;5035255;28;20459;-70
2022/09/28 01:09:20;;;;;;;0.90;0.20;;;9.50;99.90;;;;;;5037797;28;20778;-70
2022/09/28 01:11:47;;;;;;;0.30;0.20;;;9.50;99.90;;;;;;5037927;28;20462;-70
2022/09/28 01:14:16;;;;;;;0.30;0.20;;;9.60;99.90;;;;;;5037955;28;20974;-71
2022/09/28 01:16:54;;;;;;;0.40;0.20;;;9.60;99.90;;;;;;5035965;28;20452;-69
2022/09/28 01:19:59;;;;;;;1.13;0.20;;;9.60;99.90;;;;;;5037894;28;20468;-69
2022/09/28 01:22:39;;;;;;;0.33;0.10;;;9.70;99.90;;;;;;5036207;28;20883;-69
2022/09/28 01:25:11;;;;;;;0.43;0.20;;;9.70;99.90;;;;;;5037630;28;20448;-69
2022/09/28 01:27:41;;;;;;;0.40;0.13;;;9.70;99.90;;;;;;5035781;28;20551;-69
2022/09/28 01:30:11;;;;;;;0.33;0.10;;;9.60;99.90;;;;;;5037827;28;20924;-69
2022/09/28 01:32:49;;;;;;;0.30;0.10;;;9.80;99.90;;;;;;5035706;28;20463;-69
2022/09/28 01:35:20;;;;;;;0.33;0.20;;;9.80;99.90;;;;;;5037790;28;20747;-69
2022/09/28 01:37:52;;;;;;;0.30;0.10;;;9.80;99.90;;;;;;5038016;28;20979;-69
2022/09/28 01:40:22;;;;;;;0.40;0.20;;;9.80;99.90;;;;;;5037418;28;20535;-69
2022/09/28 01:42:54;;;;;;;0.40;0.20;;;9.90;99.90;;;;;;5037516;28;20456;-71
2022/09/28 01:45:26;;;;;;;0.40;0.10;;;9.90;99.90;;;;;;5037461;28;20457;-70
2022/09/28 01:47:57;;;;;;;0.63;0.20;;;10.00;99.90;;;;;;5035186;28;20456;-72
2022/09/28 01:50:28;;;;;;;1.00;0.20;;;10.00;99.90;;;;;;5037067;28;20545;-69
2022/09/28 01:53:03;;;;;;;0.30;0.20;;;10.00;99.90;;;;;;5035534;28;20764;-68
2022/09/28 01:55:33;;;;;;;0.63;0.10;;;9.90;99.90;;;;;;5037380;28;20462;-71
2022/09/28 01:58:08;;;;;;;0.40;0.17;;;9.90;99.90;;;;;;5037401;28;20463;-69
2022/09/28 02:00:38;;;;;;;0.70;0.20;;;9.90;99.90;;;;;;5037494;28;20898;-69
2022/09/28 02:03:09;;;;;;;0.40;0.20;;;10.00;99.90;;;;;;5034948;28;20752;-69
2022/09/28 02:05:39;;;;;;;3.57;0.20;;;9.90;99.90;;;;;;5037037;28;20448;-69
2022/09/28 02:08:11;;;;;;;1.00;0.30;;;10.00;99.90;;;;;;5033930;28;20456;-71
2022/09/28 02:10:42;;;;;;;0.57;0.30;;;10.00;99.90;;;;;;5037083;28;20506;-68
2022/09/28 02:13:14;;;;;;;0.30;0.10;;;10.00;99.90;;;;;;5037185;28;20456;-68
2022/09/28 02:15:46;;;;;;;1.27;0.13;;;10.00;99.90;;;;;;5036925;28;20827;-70
2022/09/28 02:18:13;;;;;;;0.50;0.20;;;10.10;99.90;;;;;;5037302;28;20479;-69
2022/09/28 02:20:42;;;;;;;2.20;0.30;;;10.10;99.90;;;;;;5035348;28;20483;-68
2022/09/28 02:23:10;;;;;;;0.30;0.10;;;10.00;99.90;;;;;;5036727;28;20464;-68
2022/09/28 02:25:40;;;;;;;1.90;0.20;;;10.00;99.90;;;;;;5036650;28;20455;-70
2022/09/28 02:28:12;;;;;;;0.47;0.17;;;10.10;99.90;;;;;;5034803;28;20456;-69
2022/09/28 02:30:41;;;;;;;0.40;0.20;;;10.10;99.90;;;;;;5036538;28;20573;-71
2022/09/28 02:33:12;;;;;;;0.40;0.20;;;10.10;99.90;;;;;;5035717;28;20462;-69
2022/09/28 02:35:41;;;;;;;1.30;0.20;;;10.20;99.90;;;;;;5036669;28;20483;-69
2022/09/28 02:38:08;;;;;;;0.40;0.20;;;10.10;99.90;;;;;;5036255;28;20456;-70
2022/09/28 02:40:36;;;;;;;0.60;0.20;;;10.30;99.90;;;;;;5036696;28;20444;-69
2022/09/28 02:43:13;;;;;;;0.30;0.17;;;10.30;99.90;;;;;;5036427;28;20525;-69
2022/09/28 02:46:00;;;;;;;3.23;0.20;;;10.40;99.90;;;;;;5036590;28;20451;-69
2022/09/28 02:48:45;;;;;;;2.40;0.30;;;10.40;99.90;;;;;;5036126;28;20896;-69
2022/09/28 02:51:22;;;;;;;0.70;0.20;;;10.30;99.90;;;;;;5036070;28;20490;-69
2022/09/28 02:54:06;;;;;;;1.77;0.30;;;10.30;99.90;;;;;;5036281;28;20821;-69
2022/09/28 02:56:48;;;;;;;0.90;0.20;;;10.40;99.90;;;;;;5034589;28;20880;-71
2022/09/28 02:59:30;;;;;;;0.90;0.30;;;10.40;99.90;;;;;;5036274;28;20804;-69
2022/09/28 03:02:05;;;;;;;2.10;0.30;;;10.30;99.90;;;;;;5036108;28;20802;-69
2022/09/28 03:04:42;;;;;;;0.50;0.30;;;10.30;99.90;;;;;;5036832;28;20888;-69
2022/09/28 03:07:17;;;;;;;1.60;0.20;;;10.40;99.90;;;;;;5034694;28;20459;-68
2022/09/28 03:09:53;;;;;;;1.17;0.20;;;10.50;99.90;;;;;;5036418;28;20894;-69
2022/09/28 03:12:23;;;;;;;0.60;0.20;;;10.40;99.90;;;;;;5034000;28;20495;-69
2022/09/28 03:15:06;;;;;;;0.37;0.20;;;10.40;99.90;;;;;;5036087;28;20956;-70
2022/09/28 03:17:33;;;;;;;2.70;0.20;;;10.50;99.90;;;;;;5036060;28;20456;-70
2022/09/28 03:20:00;;;;;;;0.80;0.13;;;10.50;99.90;;;;;;5036005;28;20920;-70
2022/09/28 03:22:27;;;;;;;0.40;0.23;;;10.70;99.90;;;;;;5036028;28;20478;-70
2022/09/28 03:24:53;;;;;;;0.50;0.20;;;10.60;99.90;;;;;;5036024;28;20456;-69
2022/09/28 03:27:20;;;;;;;1.03;0.20;;;10.50;99.90;;;;;;5035975;28;20917;-70
2022/09/28 03:29:47;;;;;;;0.67;0.20;;;10.50;99.90;;;;;;5036246;28;20449;-69
2022/09/28 03:32:15;;;;;;;0.50;0.20;;;10.40;99.90;;;;;;5036600;28;20821;-69
2022/09/28 03:34:42;;;;;;;0.40;0.20;;;10.40;99.90;;;;;;5039805;28;20452;-70
2022/09/28 03:37:09;;;;;;;0.40;0.20;;;10.30;99.90;;;;;;5039865;28;20736;-69
2022/09/28 03:39:36;;;;;;;0.40;0.20;;;10.30;99.90;;;;;;5039597;28;20578;-68
2022/09/28 03:42:02;;;;;;;0.30;0.20;;;10.30;99.90;;;;;;5037976;28;20456;-69
2022/09/28 03:44:29;;;;;;;0.33;0.20;;;10.40;99.90;;;;;;5039532;28;20448;-69
2022/09/28 03:46:56;;;;;;;0.83;0.33;;;10.40;99.90;;;;;;5037666;28;20456;-70
2022/09/28 03:49:24;;;;;;;0.40;0.20;;;10.50;99.90;;;;;;5039378;28;20448;-69
2022/09/28 03:51:51;;;;;;;0.37;0.10;;;10.40;99.90;;;;;;5039476;28;20785;-69
2022/09/28 03:54:18;;;;;;;1.30;0.30;;;10.50;99.90;;;;;;5038913;28;20448;-69
2022/09/28 03:56:45;;;;;;;1.07;0.20;;;10.50;99.90;;;;;;5039681;28;20452;-69
2022/09/28 03:59:12;;;;;;;1.43;0.23;;;10.50;99.90;;;;;;5039684;28;20891;-69
2022/09/28 04:01:39;;;;;;;0.30;0.10;;;10.60;99.90;;;;;;5035321;28;20488;-73
2022/09/28 04:04:05;;;;;;;0.70;0.20;;;10.60;99.90;;;;;;5039565;28;20542;-69
2022/09/28 04:06:34;;;;;;;0.67;0.20;;;10.60;99.90;;;;;;5038988;28;20462;-70
2022/09/28 04:09:00;;;;;;;0.30;0.20;;;10.60;99.90;;;;;;5038877;28;20538;-69
2022/09/28 04:11:27;;;;;;;0.87;0.20;;;10.80;99.90;;;;;;5038666;28;20493;-69
2022/09/28 04:13:54;;;;;;;0.40;0.20;;;10.90;99.90;;;;;;5038934;28;20752;-69
2022/09/28 04:16:21;;;;;;;0.40;0.10;;;10.90;99.90;;;;;;5035621;28;20451;-69
2022/09/28 04:18:48;;;;;;;0.77;0.20;;;10.70;99.90;;;;;;5038337;28;20490;-69
2022/09/28 04:21:16;;;;;;;1.20;0.20;;;10.70;99.90;;;;;;5035986;28;20765;-69
2022/09/28 04:23:45;;;;;;;0.30;0.10;;;10.70;99.90;;;;;;5036256;28;20510;-71
2022/09/28 04:26:16;;;;;;;2.00;0.20;;;10.60;99.90;;;;;;5036416;28;20887;-69
2022/09/28 04:31:28;;;;;;;0.80;0.20;;;10.40;99.90;;;;;;5035023;28;20479;-70
2022/09/28 04:33:55;;;;;;;0.30;0.10;;;10.40;99.90;;;;;;5035354;28;20522;-70
2022/09/28 04:36:23;;;;;;;0.43;0.17;;;10.30;99.90;;;;;;5037321;28;20506;-69
2022/09/28 04:38:52;;;;;;;1.10;0.20;;;10.30;99.90;;;;;;5038699;28;20456;-70
2022/09/28 04:41:18;;;;;;;0.50;0.10;;;10.30;99.90;;;;;;5037840;28;20452;-71
2022/09/28 04:43:47;;;;;;;0.80;0.20;;;10.30;99.90;;;;;;5037028;28;20459;-70
2022/09/28 04:46:13;;;;;;;0.30;0.10;;;10.30;99.90;;;;;;5037738;28;20812;-71
2022/09/28 04:48:40;;;;;;;2.10;0.20;;;10.30;99.90;;;;;;5038199;28;20456;-71
2022/09/28 04:51:10;;;;;;;1.23;0.20;;;10.40;99.90;;;;;;5035703;28;20484;-70
2022/09/28 04:53:36;;;;;;;0.40;0.20;;;10.40;99.90;;;;;;5037522;28;20483;-70
2022/09/28 04:56:06;;;;;;;0.40;0.20;;;10.40;99.90;;;;;;5037778;28;20475;-71
2022/09/28 04:58:35;;;;;;;0.30;0.10;;;10.40;99.90;;;;;;5037988;28;20459;-71
2022/09/28 05:01:05;;;;;;;0.30;0.10;;;10.50;99.90;;;;;;5037122;28;20458;-71
2022/09/28 05:03:33;;;;;;;0.50;0.20;;;10.50;99.90;;;;;;5034694;28;20877;-72
2022/09/28 05:06:00;;;;;;;0.40;0.17;;;10.40;99.90;;;;;;5035379;28;20208;-70
2022/09/28 05:08:27;;;;;;;0.40;0.10;;;10.40;99.90;;;;;;5033405;28;20760;-70
2022/09/28 05:10:58;;;;;;;0.30;0.20;;;10.30;99.90;;;;;;5035965;28;20908;-70
2022/09/28 05:13:27;;;;;;;0.40;0.20;;;10.30;99.90;;;;;;5036059;28;20558;-71
2022/09/28 05:15:56;;;;;;;0.30;0.20;;;10.30;99.90;;;;;;5035708;28;20906;-69
2022/09/28 05:18:23;;;;;;;0.30;0.10;;;10.30;99.90;;;;;;5033377;28;20546;-71
2022/09/28 05:20:50;;;;;;;0.53;0.20;;;10.30;99.90;;;;;;5036241;28;20476;-71
2022/09/28 05:23:17;;;;;;;0.30;0.20;;;10.20;99.90;;;;;;5034492;28;20444;-71
2022/09/28 05:25:45;;;;;;;0.30;0.10;;;10.20;99.90;;;;;;5035036;28;20448;-70
2022/09/28 05:28:12;;;;;;;0.30;0.20;;;10.10;99.90;;;;;;5034979;28;20732;-71
2022/09/28 05:30:40;;;;;;;3.03;0.20;;;9.90;99.90;;;;;;5035176;28;20476;-71
2022/09/28 05:33:07;;;;;;;0.63;0.23;;;10.10;99.90;;;;;;5035841;28;20510;-70
2022/09/28 05:35:38;;;;;;;0.43;0.20;;;10.10;99.90;;;;;;5035686;28;20546;-70
2022/09/28 05:38:05;;;;;;;0.30;0.20;;;10.10;99.90;;;;;;5035263;28;20824;-73
2022/09/28 05:40:32;;;;;;;0.40;0.10;;;10.10;99.90;;;;;;5035319;28;20449;-71
2022/09/28 05:43:00;;;;;;;0.37;0.20;;;10.10;99.90;;;;;;5036166;28;20452;-71
2022/09/28 05:45:27;;;;;;;0.30;0.20;;;10.10;99.90;;;;;;5034694;28;20455;-71
2022/09/28 05:47:55;;;;;;;0.30;0.20;;;10.00;99.90;;;;;;5034177;28;20447;-70
2022/09/28 05:50:22;;;;;;;0.37;0.20;;;10.10;99.90;;;;;;5036065;28;20555;-72
2022/09/28 05:52:58;;;;;;;0.50;0.20;;;10.20;99.90;;;;;;5034814;28;20484;-72
2022/09/28 05:55:25;;;;;;;2.33;0.20;;;10.20;99.90;;;;;;5031417;28;20963;-72
2022/09/28 05:57:52;;;;;;;0.30;0.10;;;10.30;99.90;;;;;;5035632;28;20899;-72
2022/09/28 06:00:19;;;;;;;0.47;0.20;;;10.20;99.90;;;;;;5033753;28;20460;-72
2022/09/28 06:02:56;;;;;;;0.63;0.20;;;10.10;99.90;;;;;;5036224;28;20880;-72
2022/09/28 06:05:24;;;;;;;0.40;0.20;;;10.20;99.90;;;;;;5044184;28;20479;-72
2022/09/28 06:07:50;;;;;;;0.30;0.20;;;10.10;99.90;;;;;;5046773;28;20760;-72
2022/09/28 06:10:17;;;;;;;0.40;0.20;;;10.10;99.90;;;;;;5051811;28;20460;-72
2022/09/28 06:12:46;;;;;;;0.30;0.20;;;10.20;99.90;;;;;;5040460;28;20529;-72
2022/09/28 06:15:14;;;;;;;0.73;0.20;;;10.10;99.90;;;;;;5041674;28;20749;-72
2022/09/28 06:17:42;;;;;;;0.30;0.20;;;10.20;99.90;;;;;;5048449;28;20910;-72
2022/09/28 06:20:11;;;;;;;0.30;0.10;;;10.20;99.90;;;;;;5035550;28;20484;-73
2022/09/28 06:22:38;;;;;;;0.40;0.20;;;10.30;99.90;;;;;;5035831;28;20465;-69
2022/09/28 06:25:06;;;;;;;0.57;0.20;;;10.40;99.90;;;;;;5048127;28;20459;-72
2022/09/28 06:27:34;;;;;;;2.33;0.30;;;10.30;99.90;;;;;;5040171;28;20459;-71
2022/09/28 06:30:02;;;;;;;0.40;0.20;;;10.50;99.90;;;;;;5055702;28;20455;-71
2022/09/28 06:32:29;;;;;;;0.30;0.20;;;10.60;99.90;;;;;;5044233;28;20533;-70
2022/09/28 06:34:56;;;;;;;0.40;0.20;;;10.70;99.90;;;;;;5035265;28;20990;-70
2022/09/28 06:37:27;;;;;;;0.40;0.20;;;10.70;99.90;;;;;;5033850;28;20460;-70
2022/09/28 06:39:54;;;;;;;1.00;0.20;;;10.80;99.90;;;;;;5035508;28;21009;-71
2022/09/28 06:42:22;;;;;;;0.53;0.20;;;10.50;99.90;;;;;;5038718;28;20509;-71
2022/09/28 06:44:49;;;;;;;0.40;0.20;;;10.40;99.90;;;;;;5039911;28;20537;-71
2022/09/28 06:47:16;;;;;;;0.70;0.30;;;10.30;99.90;;;;;;5037228;28;20478;-70
2022/09/28 06:49:46;;;;;;;0.90;0.20;;;10.30;99.90;;;;;;5053433;28;20798;-71
2022/09/28 06:52:13;;;;;;;0.60;0.30;;;10.60;99.90;;;;;;5034090;28;20578;-72
2022/09/28 06:54:42;;;;;;;0.40;0.20;;;10.50;99.90;;;;;;5032369;28;20463;-70
2022/09/28 06:57:08;;;;;;;0.63;0.30;;;10.50;99.90;;;;;;5041291;28;20467;-71
2022/09/28 06:59:35;;;;;;;0.70;0.20;;;10.50;99.90;;;;;;5044524;28;20462;-71
2022/09/28 07:02:02;;;;;;;0.50;0.30;;;10.90;99.90;;;;;;5033597;28;20490;-73
2022/09/28 07:04:30;;;;;;;0.60;0.40;;;10.90;99.90;;;;;;5030826;28;20569;-72
2022/09/28 07:06:57;;;;;;;0.60;0.40;;;11.10;99.90;;;;;;5044853;28;20463;-72
2022/09/28 07:09:24;;;;;;;0.70;0.30;;;11.00;99.90;;;;;;5038378;28;20533;-71
2022/09/28 07:11:52;;;;;;;0.90;0.30;;;11.10;99.90;;;;;;5042513;28;20645;-72
2022/09/28 07:14:22;;;;;;;0.40;0.20;;;11.00;99.90;;;;;;5044850;28;20562;-71
2022/09/28 07:16:49;;;;;;;7.63;0.40;;;11.10;99.90;;;;;;5053649;28;20517;-71
2022/09/28 07:19:16;;;;;;;1.30;0.30;;;11.10;99.90;;;;;;5051124;28;20487;-72
2022/09/28 07:21:43;;;;;;;0.60;0.30;;;11.20;99.90;;;;;;5038492;28;20476;-72
2022/09/28 07:24:11;;;;;;;0.93;0.23;;;11.10;99.90;;;;;;5037055;28;21005;-71
2022/09/28 07:26:38;;;;;;;0.50;0.40;;;11.20;99.90;;;;;;5039424;28;20740;-72
2022/09/28 07:29:06;;;;;;;0.63;0.30;;;11.30;99.90;;;;;;5033558;28;20452;-72
2022/09/28 07:31:34;;;;;;;1.73;0.40;;;11.20;99.90;;;;;;5036166;28;20480;-72
2022/09/28 07:34:01;;;;;;;0.57;0.30;;;11.30;99.90;;;;;;5043886;28;20519;-70
2022/09/28 07:36:30;;;;;;;0.50;0.30;;;11.10;99.90;;;;;;5050343;28;20832;-71
2022/09/28 07:38:57;;;;;;;0.60;0.30;;;11.00;99.90;;;;;;5044372;28;20817;-72
2022/09/28 07:41:31;;;;;;;0.50;0.30;;;10.90;99.90;;;;;;5040671;28;20458;-71
2022/09/28 07:44:04;;;;;;;0.63;0.30;;;10.90;99.90;;;;;;5036196;28;20456;-72
2022/09/28 07:46:33;;;;;;;0.63;0.23;;;11.10;99.90;;;;;;5036918;28;20448;-71
2022/09/28 07:49:00;;;;;;;0.40;0.30;;;11.30;99.90;;;;;;5043515;28;21129;-71
2022/09/28 07:51:27;;;;;;;0.80;0.40;;;11.20;99.90;;;;;;5037583;28;20486;-71
2022/09/28 07:53:54;;;;;;;1.30;0.33;;;11.40;99.90;;;;;;5038740;28;20900;-72
2022/09/28 07:56:21;;;;;;;0.80;0.30;;;11.30;99.90;;;;;;5042134;28;20468;-72
2022/09/28 07:58:48;;;;;;;0.50;0.30;;;11.20;99.90;;;;;;5053261;28;20495;-71
2022/09/28 08:01:16;;;;;;;0.40;0.27;;;11.30;99.90;;;;;;5046049;28;20460;-71
2022/09/28 08:03:45;;;;;;;0.53;0.23;;;11.50;99.90;;;;;;5045262;28;20476;-72
2022/09/28 08:06:15;;;;;;;0.40;0.30;;;11.70;99.90;;;;;;5039409;28;20456;-72
2022/09/28 08:08:45;;;;;;;0.50;0.30;;;11.80;99.90;;;;;;5045184;28;20452;-72
2022/09/28 08:11:15;;;;;;;0.67;0.30;;;11.90;99.90;;;;;;5044716;28;20857;-71
2022/09/28 08:13:42;;;;;;;1.40;0.40;;;12.00;99.90;;;;;;5048525;28;20503;-72
2022/09/28 08:16:10;;;;;;;0.60;0.30;;;11.80;99.90;;;;;;5038010;28;20828;-71
2022/09/28 08:18:36;;;;;;;0.60;0.40;;;11.80;99.90;;;;;;5043641;28;20468;-72
2022/09/28 08:23:52;;;;;;;1.13;0.40;;;11.80;99.90;;;;;;5037119;28;20587;-72
2022/09/28 08:26:19;;;;;;;2.10;0.40;;;11.80;99.90;;;;;;5050257;28;20513;-73
2022/09/28 08:28:46;;;;;;;0.80;0.20;;;11.70;99.90;;;;;;5040879;28;20555;-72
2022/09/28 08:31:13;;;;;;;0.63;0.40;;;11.60;99.90;;;;;;5048887;28;20831;-72
2022/09/28 08:33:41;;;;;;;0.80;0.40;;;11.70;99.90;;;;;;5051909;28;20491;-72
2022/09/28 08:36:10;;;;;;;2.53;0.30;;;12.00;99.90;;;;;;5045039;28;20444;-72
2022/09/28 08:38:37;;;;;;;0.83;0.40;;;12.10;99.90;;;;;;5045648;28;20919;-72
2022/09/28 08:41:16;;;;;;;0.40;0.30;;;12.30;99.90;;;;;;5038012;28;20974;-72
2022/09/28 08:44:08;;;;;;;0.67;0.37;;;12.30;89.60;;;;;;5036327;28;20509;-71
2022/09/28 08:46:40;;;;;;;0.43;0.20;;;12.50;77.30;;;;;;5035692;28;20543;-72
2022/09/28 08:49:12;;;;;;;0.70;0.40;;;12.70;42.00;;;;;;5036716;28;20895;-71
2022/09/28 08:51:49;;;;;;;0.50;0.30;;;12.70;57.70;;;;;;5054591;28;20463;-71
2022/09/28 08:54:25;;;;;;;0.60;0.30;;;12.50;13.50;;;;;;5041644;28;20487;-71
2022/09/28 08:56:56;;;;;;;0.50;0.30;;;12.40;76.50;;;;;;5041728;28;20875;-71
2022/09/28 08:59:28;;;;;;;0.50;0.27;;;12.40;58.30;;;;;;5038375;28;20455;-72
2022/09/28 09:01:59;;;;;;;1.17;0.30;;;12.50;54.20;;;;;;5039455;28;20449;-71
2022/09/28 09:04:27;;;;;;;1.03;0.30;;;12.70;51.80;;;;;;5043444;28;20455;-71
2022/09/28 09:07:14;;;;;;;0.60;0.30;;;12.50;49.30;;;;;;5033857;28;20455;-72
2022/09/28 09:09:54;;;;;;;0.60;0.37;;;12.10;44.60;;;;;;5036189;28;20462;-71
2022/09/28 09:12:28;;;;;;;1.00;0.40;;;12.10;93.80;;;;;;5037308;28;20483;-72
2022/09/28 09:15:33;;;;;;;0.60;0.30;;;12.00;67.60;;;;;;5035339;28;20531;-72
2022/09/28 09:18:16;;;;;;;1.00;0.40;;;12.10;30.30;;;;;;5031551;28;20546;-71
2022/09/28 09:20:50;;;;;;;0.60;0.40;;;12.20;59.30;;;;;;5032789;28;20490;-72
2022/09/28 09:23:27;;;;;;;0.50;0.30;;;12.60;14.40;;;;;;5046922;28;20446;-71
2022/09/28 09:25:58;;;;;;;0.60;0.30;;;12.70;40.80;;;;;;5044591;28;20456;-71
2022/09/28 09:29:13;;;;;;;0.50;0.27;;;12.60;7.10;;;;;;5054877;28;20871;-71
2022/09/28 09:31:54;;;;;;;1.33;0.40;;;12.80;23.70;;;;;;5028877;28;20476;-71
2022/09/28 09:34:42;;;;;;;0.53;0.30;;;12.70;3.80;;;;;;5059178;28;20447;-73
2022/09/28 09:37:35;;;;;;;0.53;0.30;;;12.70;14.30;;;;;;5036023;28;20517;-71
2022/09/28 09:43:15;;;;;;;0.50;0.30;;;12.90;1.00;;;;;;5085894;28;20556;-71
2022/09/28 09:45:55;;;;;;;0.50;0.30;;;13.00;4.10;;;;;;5065550;28;20897;-71
2022/09/28 09:48:26;;;;;;;1.90;0.50;;;13.00;8.30;;;;;;5070037;28;20447;-71
2022/09/28 09:50:57;;;;;;;0.50;0.30;;;13.00;10.50;;;;;;5065332;28;21017;-71
2022/09/28 09:53:28;;;;;;;3.10;0.40;;;12.90;1.00;;;;;;5068378;28;20481;-72
2022/09/28 09:56:00;;;;;;;0.70;0.40;;;12.80;1.00;;;;;;5067958;28;20894;-72
2022/09/28 09:58:34;;;;;;;0.70;0.50;;;12.80;1.00;;;;;;5069293;28;21022;-72
2022/09/28 10:01:08;;;;;;;0.90;0.40;;;12.70;1.00;;;;;;5064204;28;20874;-71
2022/09/28 10:03:40;;;;;;;1.47;0.40;;;13.20;1.00;;;;;;5070348;28;20557;-71
2022/09/28 10:06:12;;;;;;;0.67;0.40;;;13.30;1.00;;;;;;5065717;28;20964;-69
2022/09/28 10:08:44;;;;;;;0.70;0.40;;;13.40;1.00;;;;;;5069710;28;20466;-69
2022/09/28 10:11:15;;;;;;;1.43;0.40;;;13.50;1.00;;;;;;5072621;28;20459;-70
2022/09/28 10:14:00;;;;;;;0.97;0.43;;;13.40;1.00;;;;;;5058870;28;20451;-70
2022/09/28 10:16:27;;;;;;;1.00;0.50;;;13.60;1.00;;;;;;5067959;28;20474;-71
2022/09/28 10:18:54;;;;;;;0.70;0.30;;;13.50;1.00;;;;;;5059833;28;20937;-70
2022/09/28 10:21:23;;;;;;;0.60;0.40;;;13.60;1.00;;;;;;5068915;28;20959;-71
2022/09/28 10:23:56;;;;;;;0.60;0.40;;;13.70;1.00;;;;;;5047932;28;20904;-71
2022/09/28 10:26:27;;;;;;;0.70;0.40;;;13.50;1.00;;;;;;5053102;28;20453;-71
2022/09/28 10:28:59;;;;;;;0.60;0.40;;;13.20;1.00;;;;;;5066177;28;20557;-71
2022/09/28 10:31:37;;;;;;;1.20;0.40;;;13.20;1.00;;;;;;5060918;28;20446;-71
2022/09/28 10:34:05;;;;;;;0.50;0.33;;;13.20;1.00;;;;;;5064222;28;20450;-70
2022/09/28 10:36:37;;;;;;;2.73;0.50;;;13.40;1.00;;;;;;5068268;28;20554;-71
2022/09/28 10:39:05;;;;;;;2.53;0.40;;;13.30;1.00;;;;;;5066618;28;20451;-70
2022/09/28 10:41:32;;;;;;;1.00;0.40;;;13.40;1.00;;;;;;5067948;28;20565;-70
2022/09/28 10:44:09;;;;;;;0.68;0.40;;;13.40;1.00;;;;;;5065260;28;20483;-71
2022/09/28 10:46:38;;;;;;;0.60;0.40;;;13.40;1.00;;;;;;5059170;28;20228;-72
2022/09/28 10:49:13;;;;;;;1.67;0.50;;;13.70;1.00;;;;;;5070651;28;20532;-71
2022/09/28 10:51:41;;;;;;;0.90;0.30;;;13.90;1.00;;;;;;5064517;28;20493;-70
2022/09/28 10:54:14;;;;;;;4.20;0.47;;;13.70;1.00;;;;;;5055137;28;20788;-71
2022/09/28 10:56:41;;;;;;;0.60;0.40;;;13.90;1.00;;;;;;5050510;28;20471;-71
2022/09/28 10:59:36;;;;;;;0.50;0.40;;;13.80;1.00;;;;;;5050361;28;20460;-70
2022/09/28 11:02:16;;;;;;;1.33;0.30;;;13.80;1.00;;;;;;5038811;28;20519;-70
2022/09/28 11:04:50;;;;;;;0.60;0.40;;;13.60;1.00;;;;;;5053239;28;20554;-70
2022/09/28 11:07:18;;;;;;;0.43;0.30;;;13.80;1.00;;;;;;5052895;28;20554;-70
2022/09/28 11:09:48;;;;;;;0.60;0.30;;;13.80;1.00;;;;;;5051677;28;20574;-71
2022/09/28 11:12:18;;;;;;;3.27;0.50;;;13.90;1.00;;;;;;5050728;28;20487;-70
2022/09/28 11:14:51;;;;;;;0.80;0.43;;;14.00;1.00;;;;;;5054161;28;20779;-70
2022/09/28 11:17:26;;;;;;;0.67;0.40;;;14.10;1.00;;;;;;5051914;28;20473;-71
2022/09/28 11:19:53;;;;;;;0.50;0.30;;;14.10;99.90;;;;;;5055329;28;20463;-70
2022/09/28 11:22:22;;;;;;;1.50;0.40;;;13.90;1.00;;;;;;5051494;28;20586;-70
2022/09/28 11:24:49;;;;;;;1.00;0.40;;;13.90;1.00;;;;;;5053991;28;20455;-70
2022/09/28 11:27:23;;;;;;;1.17;0.30;;;13.70;1.00;;;;;;5052666;28;20865;-70
2022/09/28 11:29:57;;;;;;;0.70;0.40;;;13.30;1.00;;;;;;5060088;28;20516;-71
2022/09/28 11:32:28;;;;;;;0.80;0.30;;;13.30;1.00;;;;;;5049334;28;20459;-71
2022/09/28 11:34:59;;;;;;;0.53;0.30;;;13.70;1.00;;;;;;5055074;28;20893;-70
2022/09/28 11:37:57;;;;;;;0.50;0.30;;;14.10;1.00;;;;;;5053133;28;20440;-70
2022/09/28 11:40:36;;;;;;;0.67;0.30;;;14.00;1.00;;;;;;5029111;28;20920;-70
2022/09/28 11:43:13;;;;;;;0.50;0.30;;;14.30;1.00;;;;;;5050183;28;21164;-70
2022/09/28 11:45:51;;;;;;;0.60;0.40;;;14.10;99.90;;;;;;5055001;28;20997;-70
2022/09/28 11:48:24;;;;;;;0.77;0.40;;;14.30;1.00;;;;;;5050438;28;20915;-71
2022/09/28 11:50:57;;;;;;;0.90;0.47;;;14.20;99.90;;;;;;5054041;28;20520;-70
2022/09/28 11:53:30;;;;;;;0.50;0.30;;;14.30;99.90;;;;;;5053225;28;20451;-71
2022/09/28 11:56:05;;;;;;;45.40;2.77;;;14.10;99.90;;;;;;5055116;28;20452;-71
2022/09/28 11:58:35;;;;;;;4.10;0.73;;;14.10;1.00;;;;;;5053283;28;20465;-70
2022/09/28 12:01:08;;;;;;;0.53;0.30;;;14.50;1.00;;;;;;5055336;28;20452;-69
2022/09/28 12:03:41;;;;;;;1.27;0.87;;;14.50;99.90;;;;;;5053680;28;20450;-70
2022/09/28 12:06:14;;;;;;;1.00;0.40;;;14.60;1.00;;;;;;5054370;28;20970;-71
2022/09/28 12:08:46;;;;;;;0.80;0.30;;;14.50;1.00;;;;;;5051881;28;20483;-70
2022/09/28 12:11:20;;;;;;;0.50;0.30;;;14.80;1.00;;;;;;5054363;28;20735;-71
2022/09/28 12:13:50;;;;;;;0.57;0.20;;;15.00;1.00;;;;;;5052248;28;20473;-70
2022/09/28 12:16:24;;;;;;;0.50;0.30;;;14.80;99.90;;;;;;5053344;28;21187;-71
2022/09/28 12:18:56;;;;;;;1.80;0.40;;;14.70;99.90;;;;;;5043092;28;20464;-71
2022/09/28 12:21:41;;;;;;;1.60;0.40;;;14.60;59.70;;;;;;5052986;28;20475;-72
2022/09/28 12:24:16;;;;;;;1.43;0.30;;;14.70;1.00;;;;;;5048026;28;20463;-70
2022/09/28 12:26:48;;;;;;;0.60;0.33;;;14.60;1.00;;;;;;5048975;28;20926;-70
2022/09/28 12:29:20;;;;;;;0.50;0.30;;;14.80;99.90;;;;;;5049679;28;21120;-70
2022/09/28 12:32:04;;;;;;;0.50;0.20;;;14.90;87.70;;;;;;5053282;28;20443;-71
2022/09/28 12:34:31;;;;;;;1.57;0.23;;;15.10;1.00;;;;;;5046463;28;20466;-70
2022/09/28 12:37:20;;;;;;;0.40;0.30;;;15.20;1.00;;;;;;5034812;28;20462;-70
2022/09/28 12:40:02;;;;;;;0.40;0.20;;;15.20;99.90;;;;;;5047270;28;20451;-70
2022/09/28 12:42:44;;;;;;;0.63;0.20;;;14.80;1.00;;;;;;5049965;28;20493;-72
2022/09/28 12:45:45;;;;;;;0.93;0.30;;;14.60;99.90;;;;;;5051661;28;20550;-70
2022/09/28 12:48:35;;;;;;;0.40;0.20;;;14.80;1.00;;;;;;5035564;28;20462;-71
2022/09/28 12:51:14;;;;;;;0.60;0.30;;;14.60;1.00;;;;;;5053874;28;20454;-72
2022/09/28 12:54:00;;;;;;;1.07;0.20;;;14.90;1.00;;;;;;5048945;28;20906;-73
2022/09/28 12:56:38;;;;;;;0.50;0.30;;;14.60;1.00;;;;;;5053198;28;20454;-72
2022/09/28 12:59:18;;;;;;;0.50;0.30;;;14.70;99.90;;;;;;5049427;28;20516;-72
2022/09/28 13:02:18;;;;;;;1.13;0.30;;;14.70;99.90;;;;;;5053809;28;20610;-71
2022/09/28 13:05:10;;;;;;;0.80;0.27;;;14.90;1.00;;;;;;5049634;28;20459;-73
2022/09/28 13:07:48;;;;;;;3.23;0.30;;;14.90;99.90;;;;;;5049097;28;20533;-72
2022/09/28 13:10:25;;;;;;;0.87;0.30;;;15.00;99.90;;;;;;5054280;28;20447;-71
2022/09/28 13:13:03;;;;;;;0.40;0.20;;;15.10;99.90;;;;;;5053042;28;21043;-72
2022/09/28 13:15:44;;;;;;;0.40;0.23;;;15.00;1.00;;;;;;5054462;28;20541;-72
2022/09/28 13:18:19;;;;;;;0.40;0.20;;;14.70;1.00;;;;;;5051558;28;20455;-71
2022/09/28 13:21:10;;;;;;;0.53;0.30;;;14.80;99.90;;;;;;5051999;28;20438;-71
2022/09/28 13:23:41;;;;;;;0.40;0.20;;;15.20;1.00;;;;;;5049307;28;21096;-71
2022/09/28 13:26:17;;;;;;;0.93;0.30;;;15.20;99.90;;;;;;5052206;28;20737;-71